sensor_id;sensor_type;location;lat;lon;timestamp;pressure;altitude;pressure_sealevel;temperature;humidity
21185;BME280;18176;49.502;11.754;2023-04-29T00:00:55;96551.19;;;17.88;68.12
21185;BME280;18176;49.502;11.754;2023-04-29T00:04:55;96549.78;;;17.95;68.07
21185;BME280;18176;49.502;11.754;2023-04-29T00:09:00;96541.44;;;17.97;67.85
21185;BME280;18176;49.502;11.754;2023-04-29T00:13:00;96531.78;;;17.96;68.47
21185;BME280;18176;49.502;11.754;2023-04-29T00:17:01;96549.53;;;17.92;67.53
21185;BME280;18176;49.502;11.754;2023-04-29T00:21:01;96544.16;;;17.92;67.60
21185;BME280;18176;49.502;11.754;2023-04-29T00:25:07;96537.88;;;17.78;67.55
21185;BME280;18176;49.502;11.754;2023-04-29T00:29:08;96521.59;;;17.74;67.29
21185;BME280;18176;49.502;11.754;2023-04-29T00:33:10;96531.97;;;17.81;66.65
21185;BME280;18176;49.502;11.754;2023-04-29T00:37:10;96484.25;;;17.30;66.77
21185;BME280;18176;49.502;11.754;2023-04-29T00:41:13;96500.31;;;17.30;66.97
21185;BME280;18176;49.502;11.754;2023-04-29T00:45:13;96545.41;;;17.47;67.00
21185;BME280;18176;49.502;11.754;2023-04-29T00:49:14;96538.81;;;17.34;67.10
21185;BME280;18176;49.502;11.754;2023-04-29T00:53:15;96535.59;;;17.37;66.49
21185;BME280;18176;49.502;11.754;2023-04-29T00:57:18;96535.16;;;17.25;67.00
21185;BME280;18176;49.502;11.754;2023-04-29T01:01:19;96519.06;;;17.30;67.02
21185;BME280;18176;49.502;11.754;2023-04-29T01:05:20;96533.59;;;17.24;67.23
21185;BME280;18176;49.502;11.754;2023-04-29T01:09:42;96518.88;;;17.22;67.34
21185;BME280;18176;49.502;11.754;2023-04-29T01:13:58;96534.59;;;17.28;67.77
21185;BME280;18176;49.502;11.754;2023-04-29T01:18:05;96523.22;;;17.41;66.98
21185;BME280;18176;49.502;11.754;2023-04-29T01:22:09;96529.56;;;17.50;66.27
21185;BME280;18176;49.502;11.754;2023-04-29T01:26:13;96506.69;;;17.34;65.87
21185;BME280;18176;49.502;11.754;2023-04-29T01:30:46;96522.84;;;17.58;66.17
21185;BME280;18176;49.502;11.754;2023-04-29T01:34:58;96495.84;;;17.49;66.03
21185;BME280;18176;49.502;11.754;2023-04-29T01:39:10;96520.34;;;17.90;65.49
21185;BME280;18176;49.502;11.754;2023-04-29T01:43:22;96522.25;;;17.85;65.70
21185;BME280;18176;49.502;11.754;2023-04-29T01:47:26;96507.78;;;17.86;65.46
21185;BME280;18176;49.502;11.754;2023-04-29T01:51:26;96505.94;;;17.58;66.13
21185;BME280;18176;49.502;11.754;2023-04-29T01:55:27;96527.94;;;17.54;66.69
21185;BME280;18176;49.502;11.754;2023-04-29T01:59:46;96523.50;;;17.69;66.13
21185;BME280;18176;49.502;11.754;2023-04-29T02:04:06;96520.56;;;17.70;65.60
21185;BME280;18176;49.502;11.754;2023-04-29T02:08:07;96530.78;;;17.34;66.32
21185;BME280;18176;49.502;11.754;2023-04-29T02:12:11;96544.28;;;17.82;65.43
21185;BME280;18176;49.502;11.754;2023-04-29T02:16:15;96542.69;;;17.81;65.46
21185;BME280;18176;49.502;11.754;2023-04-29T02:20:22;96547.25;;;17.57;66.33
21185;BME280;18176;49.502;11.754;2023-04-29T02:24:23;96553.19;;;17.77;65.87
21185;BME280;18176;49.502;11.754;2023-04-29T02:28:23;96550.44;;;17.82;65.33
21185;BME280;18176;49.502;11.754;2023-04-29T02:32:26;96555.88;;;17.77;65.35
21185;BME280;18176;49.502;11.754;2023-04-29T02:36:28;96557.97;;;17.80;65.51
21185;BME280;18176;49.502;11.754;2023-04-29T02:40:28;96522.72;;;17.39;65.20
21185;BME280;18176;49.502;11.754;2023-04-29T02:44:29;96525.06;;;17.46;65.78
21185;BME280;18176;49.502;11.754;2023-04-29T02:48:33;96538.44;;;17.98;64.40
21185;BME280;18176;49.502;11.754;2023-04-29T02:52:34;96501.63;;;17.62;63.92
21185;BME280;18176;49.502;11.754;2023-04-29T02:56:34;96560.69;;;17.51;64.88
21185;BME280;18176;49.502;11.754;2023-04-29T03:00:36;96530.28;;;17.32;64.36
21185;BME280;18176;49.502;11.754;2023-04-29T03:04:42;96542.59;;;17.33;64.18
21185;BME280;18176;49.502;11.754;2023-04-29T03:08:43;96530.50;;;17.07;64.55
21185;BME280;18176;49.502;11.754;2023-04-29T03:12:43;96526.78;;;17.03;64.75
21185;BME280;18176;49.502;11.754;2023-04-29T03:16:44;96536.88;;;17.11;64.26
21185;BME280;18176;49.502;11.754;2023-04-29T03:20:47;96542.28;;;17.06;64.08
21185;BME280;18176;49.502;11.754;2023-04-29T03:24:48;96538.13;;;16.90;65.28
21185;BME280;18176;49.502;11.754;2023-04-29T03:28:49;96511.97;;;16.82;65.25
21185;BME280;18176;49.502;11.754;2023-04-29T03:32:50;96532.16;;;17.03;64.65
21185;BME280;18176;49.502;11.754;2023-04-29T03:36:54;96522.31;;;16.94;64.53
21185;BME280;18176;49.502;11.754;2023-04-29T03:40:54;96526.38;;;16.86;64.98
21185;BME280;18176;49.502;11.754;2023-04-29T03:44:55;96526.06;;;16.93;64.94
21185;BME280;18176;49.502;11.754;2023-04-29T03:48:55;96529.56;;;16.88;65.24
21185;BME280;18176;49.502;11.754;2023-04-29T03:52:58;96532.09;;;16.69;65.11
21185;BME280;18176;49.502;11.754;2023-04-29T03:56:59;96535.13;;;16.58;65.69
21185;BME280;18176;49.502;11.754;2023-04-29T04:01:01;96535.19;;;16.48;65.22
21185;BME280;18176;49.502;11.754;2023-04-29T04:05:08;96548.41;;;16.73;64.88
21185;BME280;18176;49.502;11.754;2023-04-29T04:09:16;96547.03;;;17.14;64.63
21185;BME280;18176;49.502;11.754;2023-04-29T04:13:17;96539.56;;;17.11;65.34
21185;BME280;18176;49.502;11.754;2023-04-29T04:17:18;96553.06;;;16.96;66.09
21185;BME280;18176;49.502;11.754;2023-04-29T04:21:18;96546.03;;;17.05;65.65
21185;BME280;18176;49.502;11.754;2023-04-29T04:25:31;96550.84;;;17.08;65.32
21185;BME280;18176;49.502;11.754;2023-04-29T04:29:54;96565.78;;;17.14;66.11
21185;BME280;18176;49.502;11.754;2023-04-29T04:34:00;96543.88;;;17.07;65.49
21185;BME280;18176;49.502;11.754;2023-04-29T04:38:02;96564.16;;;17.13;65.54
21185;BME280;18176;49.502;11.754;2023-04-29T04:42:05;96560.66;;;16.84;66.36
21185;BME280;18176;49.502;11.754;2023-04-29T04:46:13;96575.09;;;16.83;66.92
21185;BME280;18176;49.502;11.754;2023-04-29T04:50:32;96554.97;;;16.91;66.17
21185;BME280;18176;49.502;11.754;2023-04-29T04:54:33;96561.69;;;16.88;66.62
21185;BME280;18176;49.502;11.754;2023-04-29T04:58:53;96570.19;;;16.95;67.31
21185;BME280;18176;49.502;11.754;2023-04-29T05:02:53;96554.66;;;16.97;67.35
21185;BME280;18176;49.502;11.754;2023-04-29T05:06:54;96586.97;;;17.44;66.63
21185;BME280;18176;49.502;11.754;2023-04-29T05:10:59;96587.63;;;17.60;66.67
21185;BME280;18176;49.502;11.754;2023-04-29T05:15:03;96586.94;;;17.78;66.10
21185;BME280;18176;49.502;11.754;2023-04-29T05:19:04;96583.94;;;17.80;66.04
21185;BME280;18176;49.502;11.754;2023-04-29T05:23:08;96587.47;;;18.04;66.36
21185;BME280;18176;49.502;11.754;2023-04-29T05:27:10;96606.13;;;18.14;66.72
21185;BME280;18176;49.502;11.754;2023-04-29T05:31:14;96594.50;;;18.42;66.91
21185;BME280;18176;49.502;11.754;2023-04-29T05:35:14;96602.41;;;18.57;67.11
21185;BME280;18176;49.502;11.754;2023-04-29T05:39:15;96608.72;;;18.66;66.51
21185;BME280;18176;49.502;11.754;2023-04-29T05:43:24;96609.00;;;18.46;66.62
21185;BME280;18176;49.502;11.754;2023-04-29T05:47:28;96607.91;;;18.42;66.09
21185;BME280;18176;49.502;11.754;2023-04-29T05:51:29;96609.94;;;18.55;65.72
21185;BME280;18176;49.502;11.754;2023-04-29T05:55:29;96615.56;;;18.77;65.39
21185;BME280;18176;49.502;11.754;2023-04-29T05:59:30;96612.66;;;18.92;63.14
21185;BME280;18176;49.502;11.754;2023-04-29T06:03:36;96627.44;;;19.46;62.11
21185;BME280;18176;49.502;11.754;2023-04-29T06:07:58;96630.56;;;19.34;60.19
21185;BME280;18176;49.502;11.754;2023-04-29T06:12:14;96635.16;;;19.34;60.23
21185;BME280;18176;49.502;11.754;2023-04-29T06:16:16;96630.31;;;19.68;59.02
21185;BME280;18176;49.502;11.754;2023-04-29T06:20:20;96637.56;;;20.13;58.33
21185;BME280;18176;49.502;11.754;2023-04-29T06:24:22;96644.03;;;19.99;57.88
21185;BME280;18176;49.502;11.754;2023-04-29T06:28:22;96645.34;;;20.15;56.93
21185;BME280;18176;49.502;11.754;2023-04-29T06:32:23;96652.78;;;20.23;56.63
21185;BME280;18176;49.502;11.754;2023-04-29T06:36:26;96655.50;;;20.04;57.29
21185;BME280;18176;49.502;11.754;2023-04-29T06:40:46;96650.44;;;19.71;57.76
21185;BME280;18176;49.502;11.754;2023-04-29T06:45:07;96649.34;;;20.17;56.66
21185;BME280;18176;49.502;11.754;2023-04-29T06:49:10;96665.00;;;19.83;57.20
21185;BME280;18176;49.502;11.754;2023-04-29T06:53:13;96635.28;;;20.07;56.70
21185;BME280;18176;49.502;11.754;2023-04-29T06:57:13;96662.31;;;20.97;55.12
21185;BME280;18176;49.502;11.754;2023-04-29T07:01:15;96667.13;;;20.73;55.29
21185;BME280;18176;49.502;11.754;2023-04-29T07:05:16;96667.13;;;20.73;55.59
21185;BME280;18176;49.502;11.754;2023-04-29T07:09:19;96672.69;;;20.90;54.95
21185;BME280;18176;49.502;11.754;2023-04-29T07:13:20;96678.19;;;21.34;53.43
21185;BME280;18176;49.502;11.754;2023-04-29T07:17:20;96667.59;;;21.96;52.68
21185;BME280;18176;49.502;11.754;2023-04-29T07:21:20;96678.75;;;22.03;51.51
21185;BME280;18176;49.502;11.754;2023-04-29T07:25:24;96682.06;;;21.78;52.47
21185;BME280;18176;49.502;11.754;2023-04-29T07:29:25;96674.09;;;20.87;53.90
21185;BME280;18176;49.502;11.754;2023-04-29T07:33:26;96668.72;;;20.74;54.04
21185;BME280;18176;49.502;11.754;2023-04-29T07:37:27;96688.75;;;21.44;52.20
21185;BME280;18176;49.502;11.754;2023-04-29T07:41:30;96661.13;;;20.89;53.07
21185;BME280;18176;49.502;11.754;2023-04-29T07:45:30;96692.00;;;21.33;52.48
21185;BME280;18176;49.502;11.754;2023-04-29T07:49:30;96700.09;;;21.19;53.51
21185;BME280;18176;49.502;11.754;2023-04-29T07:53:32;96691.47;;;20.95;53.46
21185;BME280;18176;49.502;11.754;2023-04-29T07:57:34;96696.50;;;21.59;51.69
21185;BME280;18176;49.502;11.754;2023-04-29T08:01:35;96709.91;;;21.51;50.17
21185;BME280;18176;49.502;11.754;2023-04-29T08:05:35;96695.91;;;21.27;50.72
21185;BME280;18176;49.502;11.754;2023-04-29T08:09:36;96710.16;;;21.41;51.52
21185;BME280;18176;49.502;11.754;2023-04-29T08:13:41;96711.94;;;21.67;51.26
21185;BME280;18176;49.502;11.754;2023-04-29T08:17:41;96709.38;;;20.86;52.85
21185;BME280;18176;49.502;11.754;2023-04-29T08:21:42;96706.13;;;21.52;51.27
21185;BME280;18176;49.502;11.754;2023-04-29T08:25:42;96722.53;;;21.28;52.22
21185;BME280;18176;49.502;11.754;2023-04-29T08:29:45;96720.47;;;21.61;51.65
21185;BME280;18176;49.502;11.754;2023-04-29T08:33:45;96729.09;;;21.49;51.81
21185;BME280;18176;49.502;11.754;2023-04-29T08:37:46;96725.38;;;21.59;51.07
21185;BME280;18176;49.502;11.754;2023-04-29T08:41:46;96729.03;;;21.63;51.73
21185;BME280;18176;49.502;11.754;2023-04-29T08:45:51;96745.22;;;22.21;48.45
21185;BME280;18176;49.502;11.754;2023-04-29T08:49:53;96738.94;;;21.90;49.02
21185;BME280;18176;49.502;11.754;2023-04-29T08:53:55;96740.56;;;21.41;49.85
21185;BME280;18176;49.502;11.754;2023-04-29T08:57:56;96736.50;;;22.02;48.14
21185;BME280;18176;49.502;11.754;2023-04-29T09:02:00;96739.41;;;22.97;46.49
21185;BME280;18176;49.502;11.754;2023-04-29T09:06:00;96739.19;;;24.36;42.67
21185;BME280;18176;49.502;11.754;2023-04-29T09:10:08;96750.59;;;23.13;44.26
21185;BME280;18176;49.502;11.754;2023-04-29T09:14:08;96750.28;;;22.75;47.10
21185;BME280;18176;49.502;11.754;2023-04-29T09:18:11;96748.03;;;23.17;45.14
21185;BME280;18176;49.502;11.754;2023-04-29T09:22:11;96739.09;;;22.99;44.94
21185;BME280;18176;49.502;11.754;2023-04-29T09:26:13;96756.72;;;22.13;46.47
21185;BME280;18176;49.502;11.754;2023-04-29T09:30:13;96739.44;;;22.14;46.45
21185;BME280;18176;49.502;11.754;2023-04-29T09:34:30;96751.88;;;22.76;45.27
21185;BME280;18176;49.502;11.754;2023-04-29T09:38:35;96738.97;;;23.13;44.63
21185;BME280;18176;49.502;11.754;2023-04-29T09:42:41;96752.44;;;23.52;43.76
21185;BME280;18176;49.502;11.754;2023-04-29T09:46:42;96763.41;;;23.38;43.94
21185;BME280;18176;49.502;11.754;2023-04-29T09:51:00;96768.97;;;22.63;45.09
21185;BME280;18176;49.502;11.754;2023-04-29T09:55:05;96771.09;;;22.00;45.77
21185;BME280;18176;49.502;11.754;2023-04-29T09:59:07;96771.31;;;22.34;45.80
21185;BME280;18176;49.502;11.754;2023-04-29T10:03:08;96767.31;;;22.01;46.66
21185;BME280;18176;49.502;11.754;2023-04-29T10:07:14;96779.41;;;22.56;45.97
21185;BME280;18176;49.502;11.754;2023-04-29T10:11:16;96787.00;;;22.23;46.34
21185;BME280;18176;49.502;11.754;2023-04-29T10:15:25;96781.00;;;22.57;46.17
21185;BME280;18176;49.502;11.754;2023-04-29T10:19:33;96784.91;;;22.73;45.99
21185;BME280;18176;49.502;11.754;2023-04-29T10:23:37;96759.91;;;22.37;45.33
21185;BME280;18176;49.502;11.754;2023-04-29T10:27:41;96773.16;;;22.69;45.41
21185;BME280;18176;49.502;11.754;2023-04-29T10:31:43;96783.47;;;22.45;45.67
21185;BME280;18176;49.502;11.754;2023-04-29T10:35:45;96789.56;;;22.59;46.33
21185;BME280;18176;49.502;11.754;2023-04-29T10:39:58;96786.41;;;22.13;46.60
21185;BME280;18176;49.502;11.754;2023-04-29T10:44:00;96803.25;;;21.60;47.87
21185;BME280;18176;49.502;11.754;2023-04-29T10:48:14;96765.72;;;21.64;48.16
21185;BME280;18176;49.502;11.754;2023-04-29T10:52:18;96787.94;;;21.69;47.59
21185;BME280;18176;49.502;11.754;2023-04-29T10:56:21;96787.81;;;22.55;46.50
21185;BME280;18176;49.502;11.754;2023-04-29T11:00:22;96769.47;;;22.65;46.05
21185;BME280;18176;49.502;11.754;2023-04-29T11:04:25;96746.69;;;22.05;45.34
21185;BME280;18176;49.502;11.754;2023-04-29T11:08:25;96751.13;;;22.01;46.58
21185;BME280;18176;49.502;11.754;2023-04-29T11:12:28;96766.19;;;22.02;45.42
21185;BME280;18176;49.502;11.754;2023-04-29T11:16:28;96764.19;;;23.39;43.44
21185;BME280;18176;49.502;11.754;2023-04-29T11:20:29;96768.81;;;24.50;41.40
21185;BME280;18176;49.502;11.754;2023-04-29T11:24:29;96768.81;;;24.96;38.97
21185;BME280;18176;49.502;11.754;2023-04-29T11:28:32;96778.41;;;23.96;40.81
21185;BME280;18176;49.502;11.754;2023-04-29T11:32:35;96765.16;;;23.60;40.86
21185;BME280;18176;49.502;11.754;2023-04-29T11:36:36;96771.25;;;24.08;40.73
21185;BME280;18176;49.502;11.754;2023-04-29T11:40:41;96774.22;;;23.55;41.75
21185;BME280;18176;49.502;11.754;2023-04-29T11:44:44;96756.94;;;22.69;40.22
21185;BME280;18176;49.502;11.754;2023-04-29T11:48:48;96698.66;;;22.46;41.52
21185;BME280;18176;49.502;11.754;2023-04-29T11:52:49;96774.78;;;24.17;38.06
21185;BME280;18176;49.502;11.754;2023-04-29T11:56:52;96785.28;;;24.10;37.52
21185;BME280;18176;49.502;11.754;2023-04-29T12:00:57;96763.28;;;24.75;37.49
21185;BME280;18176;49.502;11.754;2023-04-29T12:04:58;96785.97;;;25.17;36.56
21185;BME280;18176;49.502;11.754;2023-04-29T12:09:00;96794.44;;;25.16;37.21
21185;BME280;18176;49.502;11.754;2023-04-29T12:13:00;96791.47;;;24.28;37.49
21185;BME280;18176;49.502;11.754;2023-04-29T12:17:04;96780.97;;;24.90;36.94
21185;BME280;18176;49.502;11.754;2023-04-29T12:21:06;96795.38;;;24.82;37.33
21185;BME280;18176;49.502;11.754;2023-04-29T12:25:08;96806.22;;;24.65;37.11
21185;BME280;18176;49.502;11.754;2023-04-29T12:29:09;96806.25;;;24.48;36.72
21185;BME280;18176;49.502;11.754;2023-04-29T12:33:17;96805.00;;;23.85;36.61
21185;BME280;18176;49.502;11.754;2023-04-29T12:37:20;96812.44;;;23.15;38.44
21185;BME280;18176;49.502;11.754;2023-04-29T12:41:36;96810.50;;;23.54;38.83
21185;BME280;18176;49.502;11.754;2023-04-29T12:45:38;96820.56;;;23.88;38.30
21185;BME280;18176;49.502;11.754;2023-04-29T12:49:45;96828.31;;;23.55;38.88
21185;BME280;18176;49.502;11.754;2023-04-29T12:53:46;96812.00;;;24.20;37.97
21185;BME280;18176;49.502;11.754;2023-04-29T12:57:46;96804.56;;;24.17;37.94
21185;BME280;18176;49.502;11.754;2023-04-29T13:01:46;96819.91;;;23.57;39.42
21185;BME280;18176;49.502;11.754;2023-04-29T13:05:50;96808.81;;;23.28;39.84
21185;BME280;18176;49.502;11.754;2023-04-29T13:09:51;96800.19;;;23.17;40.35
21185;BME280;18176;49.502;11.754;2023-04-29T13:13:51;96819.19;;;22.64;41.06
21185;BME280;18176;49.502;11.754;2023-04-29T13:17:51;96805.56;;;22.69;41.77
21185;BME280;18176;49.502;11.754;2023-04-29T13:21:55;96819.97;;;22.95;42.23
21185;BME280;18176;49.502;11.754;2023-04-29T13:25:55;96825.53;;;23.30;41.58
21185;BME280;18176;49.502;11.754;2023-04-29T13:29:55;96807.56;;;22.86;42.62
21185;BME280;18176;49.502;11.754;2023-04-29T13:33:55;96821.31;;;23.07;41.88
21185;BME280;18176;49.502;11.754;2023-04-29T13:37:58;96829.22;;;22.94;41.67
21185;BME280;18176;49.502;11.754;2023-04-29T13:41:58;96830.75;;;23.18;41.30
21185;BME280;18176;49.502;11.754;2023-04-29T13:46:00;96837.84;;;23.44;40.89
21185;BME280;18176;49.502;11.754;2023-04-29T13:50:00;96817.78;;;22.67;41.75
21185;BME280;18176;49.502;11.754;2023-04-29T13:54:06;96823.97;;;22.23;43.53
21185;BME280;18176;49.502;11.754;2023-04-29T13:58:26;96839.94;;;22.33;41.82
21185;BME280;18176;49.502;11.754;2023-04-29T14:02:47;96839.50;;;21.68;43.10
21185;BME280;18176;49.502;11.754;2023-04-29T14:06:50;96850.84;;;21.79;43.47
21185;BME280;18176;49.502;11.754;2023-04-29T14:10:53;96838.59;;;21.73;43.27
21185;BME280;18176;49.502;11.754;2023-04-29T14:14:54;96839.72;;;22.07;43.05
21185;BME280;18176;49.502;11.754;2023-04-29T14:18:56;96845.19;;;22.16;42.95
21185;BME280;18176;49.502;11.754;2023-04-29T14:22:59;96843.94;;;22.00;43.08
21185;BME280;18176;49.502;11.754;2023-04-29T14:27:02;96851.44;;;22.47;42.65
21185;BME280;18176;49.502;11.754;2023-04-29T14:31:03;96857.19;;;23.29;41.26
21185;BME280;18176;49.502;11.754;2023-04-29T14:35:05;96851.00;;;23.94;40.33
21185;BME280;18176;49.502;11.754;2023-04-29T14:39:05;96857.41;;;24.06;40.63
21185;BME280;18176;49.502;11.754;2023-04-29T14:43:08;96861.06;;;24.19;39.15
21185;BME280;18176;49.502;11.754;2023-04-29T14:47:08;96854.72;;;24.15;39.44
21185;BME280;18176;49.502;11.754;2023-04-29T14:51:09;96855.81;;;24.39;38.84
21185;BME280;18176;49.502;11.754;2023-04-29T14:55:09;96858.88;;;25.10;37.63
21185;BME280;18176;49.502;11.754;2023-04-29T14:59:12;96858.78;;;25.73;35.92
21185;BME280;18176;49.502;11.754;2023-04-29T15:03:13;96861.66;;;26.27;35.38
21185;BME280;18176;49.502;11.754;2023-04-29T15:07:19;96868.44;;;25.62;35.54
21185;BME280;18176;49.502;11.754;2023-04-29T15:11:19;96873.78;;;24.87;36.72
21185;BME280;18176;49.502;11.754;2023-04-29T15:15:23;96879.16;;;25.04;36.27
21185;BME280;18176;49.502;11.754;2023-04-29T15:19:23;96868.09;;;25.64;35.59
21185;BME280;18176;49.502;11.754;2023-04-29T15:23:23;96866.09;;;26.11;34.78
21185;BME280;18176;49.502;11.754;2023-04-29T15:27:24;96885.91;;;26.03;34.96
21185;BME280;18176;49.502;11.754;2023-04-29T15:31:27;96885.91;;;25.36;35.24
21185;BME280;18176;49.502;11.754;2023-04-29T15:35:27;96858.84;;;24.47;36.27
21185;BME280;18176;49.502;11.754;2023-04-29T15:39:27;96900.91;;;24.35;36.89
21185;BME280;18176;49.502;11.754;2023-04-29T15:43:29;96893.44;;;23.76;37.95
21185;BME280;18176;49.502;11.754;2023-04-29T15:47:32;96907.44;;;23.61;38.93
21185;BME280;18176;49.502;11.754;2023-04-29T15:51:32;96900.84;;;23.45;39.35
21185;BME280;18176;49.502;11.754;2023-04-29T15:55:32;96902.91;;;23.17;38.83
21185;BME280;18176;49.502;11.754;2023-04-29T15:59:33;96905.38;;;23.66;37.27
21185;BME280;18176;49.502;11.754;2023-04-29T16:03:36;96907.38;;;24.00;37.25
21185;BME280;18176;49.502;11.754;2023-04-29T16:07:36;96912.22;;;23.64;37.75
21185;BME280;18176;49.502;11.754;2023-04-29T16:11:36;96926.44;;;23.39;38.76
21185;BME280;18176;49.502;11.754;2023-04-29T16:15:37;96934.75;;;23.20;39.12
21185;BME280;18176;49.502;11.754;2023-04-29T16:19:40;96940.47;;;22.96;40.02
21185;BME280;18176;49.502;11.754;2023-04-29T16:23:40;96934.44;;;22.55;40.59
21185;BME280;18176;49.502;11.754;2023-04-29T16:27:41;96952.56;;;22.19;41.88
21185;BME280;18176;49.502;11.754;2023-04-29T16:31:41;96955.16;;;21.69;42.42
21185;BME280;18176;49.502;11.754;2023-04-29T16:35:44;96955.56;;;21.77;42.51
21185;BME280;18176;49.502;11.754;2023-04-29T16:39:44;96972.94;;;21.71;42.80
21185;BME280;18176;49.502;11.754;2023-04-29T16:43:48;96974.97;;;21.92;42.94
21185;BME280;18176;49.502;11.754;2023-04-29T16:47:49;96964.97;;;21.93;42.47
21185;BME280;18176;49.502;11.754;2023-04-29T16:51:53;96983.50;;;21.53;43.25
21185;BME280;18176;49.502;11.754;2023-04-29T16:55:54;96986.28;;;21.48;43.34
21185;BME280;18176;49.502;11.754;2023-04-29T16:59:54;96977.91;;;21.36;43.21
21185;BME280;18176;49.502;11.754;2023-04-29T17:03:54;96980.81;;;21.08;43.82
21185;BME280;18176;49.502;11.754;2023-04-29T17:07:58;96998.19;;;20.83;44.45
21185;BME280;18176;49.502;11.754;2023-04-29T17:11:59;97005.56;;;21.10;43.98
21185;BME280;18176;49.502;11.754;2023-04-29T17:16:00;96995.19;;;20.66;44.73
21185;BME280;18176;49.502;11.754;2023-04-29T17:20:00;97003.91;;;20.95;44.43
21185;BME280;18176;49.502;11.754;2023-04-29T17:24:04;97007.41;;;20.95;44.80
21185;BME280;18176;49.502;11.754;2023-04-29T17:28:04;97001.13;;;21.00;44.63
21185;BME280;18176;49.502;11.754;2023-04-29T17:32:05;97002.06;;;21.09;44.10
21185;BME280;18176;49.502;11.754;2023-04-29T17:36:11;97015.97;;;21.16;44.33
21185;BME280;18176;49.502;11.754;2023-04-29T17:40:14;97015.03;;;20.88;43.90
21185;BME280;18176;49.502;11.754;2023-04-29T17:44:14;97024.00;;;20.84;43.46
21185;BME280;18176;49.502;11.754;2023-04-29T17:48:17;97028.13;;;20.63;44.34
21185;BME280;18176;49.502;11.754;2023-04-29T17:52:18;97027.28;;;20.44;43.94
21185;BME280;18176;49.502;11.754;2023-04-29T17:56:22;97021.56;;;20.69;43.96
21185;BME280;18176;49.502;11.754;2023-04-29T18:00:24;97034.50;;;20.67;43.66
21185;BME280;18176;49.502;11.754;2023-04-29T18:04:24;97051.38;;;20.54;44.12
21185;BME280;18176;49.502;11.754;2023-04-29T18:08:25;97049.34;;;20.46;44.24
21185;BME280;18176;49.502;11.754;2023-04-29T18:12:28;97054.63;;;20.08;45.25
21185;BME280;18176;49.502;11.754;2023-04-29T18:16:29;97038.00;;;20.01;45.29
21185;BME280;18176;49.502;11.754;2023-04-29T18:20:29;97056.91;;;19.96;45.33
21185;BME280;18176;49.502;11.754;2023-04-29T18:24:29;97055.59;;;19.70;46.18
21185;BME280;18176;49.502;11.754;2023-04-29T18:28:32;97056.22;;;19.86;46.11
21185;BME280;18176;49.502;11.754;2023-04-29T18:32:33;97071.44;;;19.95;45.91
21185;BME280;18176;49.502;11.754;2023-04-29T18:36:33;97066.13;;;19.90;45.98
21185;BME280;18176;49.502;11.754;2023-04-29T18:40:34;97067.38;;;19.74;46.13
21185;BME280;18176;49.502;11.754;2023-04-29T18:44:37;97066.47;;;19.55;46.61
21185;BME280;18176;49.502;11.754;2023-04-29T18:48:38;97076.88;;;19.61;46.93
21185;BME280;18176;49.502;11.754;2023-04-29T18:52:38;97081.97;;;19.68;46.67
21185;BME280;18176;49.502;11.754;2023-04-29T18:56:39;97078.38;;;19.49;46.94
21185;BME280;18176;49.502;11.754;2023-04-29T19:00:42;97106.94;;;19.40;47.47
21185;BME280;18176;49.502;11.754;2023-04-29T19:04:43;97117.13;;;19.43;47.73
21185;BME280;18176;49.502;11.754;2023-04-29T19:08:43;97118.72;;;19.44;47.39
21185;BME280;18176;49.502;11.754;2023-04-29T19:12:44;97114.97;;;19.45;47.57
21185;BME280;18176;49.502;11.754;2023-04-29T19:16:47;97118.72;;;19.44;47.79
21185;BME280;18176;49.502;11.754;2023-04-29T19:20:47;97126.91;;;19.63;47.20
21185;BME280;18176;49.502;11.754;2023-04-29T19:24:49;97143.34;;;19.56;47.57
21185;BME280;18176;49.502;11.754;2023-04-29T19:28:50;97146.09;;;19.46;48.29
21185;BME280;18176;49.502;11.754;2023-04-29T19:32:53;97147.25;;;19.40;48.80
21185;BME280;18176;49.502;11.754;2023-04-29T19:36:53;97148.56;;;19.42;48.45
21185;BME280;18176;49.502;11.754;2023-04-29T19:40:54;97148.81;;;19.41;48.28
21185;BME280;18176;49.502;11.754;2023-04-29T19:44:55;97158.00;;;19.35;48.54
21185;BME280;18176;49.502;11.754;2023-04-29T19:48:58;97157.69;;;19.41;48.53
21185;BME280;18176;49.502;11.754;2023-04-29T19:52:59;97144.03;;;19.33;48.01
21185;BME280;18176;49.502;11.754;2023-04-29T19:56:59;97166.53;;;19.47;48.28
21185;BME280;18176;49.502;11.754;2023-04-29T20:01:00;97155.31;;;19.40;48.69
21185;BME280;18176;49.502;11.754;2023-04-29T20:05:05;97136.50;;;19.35;47.90
21185;BME280;18176;49.502;11.754;2023-04-29T20:09:08;97167.56;;;19.51;47.87
21185;BME280;18176;49.502;11.754;2023-04-29T20:13:10;97049.44;;;18.63;47.19
21185;BME280;18176;49.502;11.754;2023-04-29T20:17:11;97159.63;;;19.36;47.14
21185;BME280;18176;49.502;11.754;2023-04-29T20:21:16;97162.38;;;19.21;47.73
21185;BME280;18176;49.502;11.754;2023-04-29T20:25:16;97166.16;;;19.20;47.74
21185;BME280;18176;49.502;11.754;2023-04-29T20:29:16;97161.34;;;19.17;47.97
21185;BME280;18176;49.502;11.754;2023-04-29T20:33:17;97160.31;;;19.13;48.20
21185;BME280;18176;49.502;11.754;2023-04-29T20:37:22;97150.72;;;18.97;47.78
21185;BME280;18176;49.502;11.754;2023-04-29T20:41:26;97176.47;;;19.03;47.82
21185;BME280;18176;49.502;11.754;2023-04-29T20:45:27;97127.75;;;18.75;47.82
21185;BME280;18176;49.502;11.754;2023-04-29T20:49:28;97116.31;;;18.55;47.53
21185;BME280;18176;49.502;11.754;2023-04-29T20:53:31;97178.09;;;19.04;47.96
21185;BME280;18176;49.502;11.754;2023-04-29T20:57:31;97125.19;;;18.50;48.17
21185;BME280;18176;49.502;11.754;2023-04-29T21:01:32;97185.19;;;18.74;48.17
21185;BME280;18176;49.502;11.754;2023-04-29T21:05:34;97160.59;;;18.52;48.08
21185;BME280;18176;49.502;11.754;2023-04-29T21:09:37;97048.13;;;17.92;47.94